sensor_id;sensor_type;location;lat;lon;timestamp;P1;durP1;ratioP1;P2;durP2;ratioP2
305;SDS011;137;48.578;9.180;2022-12-07T00:01:04;3.93;;;3.60;;
305;SDS011;137;48.578;9.180;2022-12-07T00:03:33;5.50;;;4.70;;
305;SDS011;137;48.578;9.180;2022-12-07T00:06:01;4.40;;;3.83;;
305;SDS011;137;48.578;9.180;2022-12-07T00:08:29;4.77;;;3.93;;
305;SDS011;137;48.578;9.180;2022-12-07T00:11:00;3.67;;;3.37;;
305;SDS011;137;48.578;9.180;2022-12-07T00:13:28;4.10;;;3.70;;
305;SDS011;137;48.578;9.180;2022-12-07T00:15:55;6.23;;;4.57;;
305;SDS011;137;48.578;9.180;2022-12-07T00:18:25;3.83;;;3.40;;
305;SDS011;137;48.578;9.180;2022-12-07T00:20:53;4.20;;;3.23;;
305;SDS011;137;48.578;9.180;2022-12-07T00:23:25;4.33;;;3.93;;
305;SDS011;137;48.578;9.180;2022-12-07T00:25:52;3.77;;;3.33;;
305;SDS011;137;48.578;9.180;2022-12-07T00:28:19;6.63;;;3.07;;
305;SDS011;137;48.578;9.180;2022-12-07T00:30:45;3.60;;;3.17;;
305;SDS011;137;48.578;9.180;2022-12-07T00:33:12;3.57;;;3.10;;
305;SDS011;137;48.578;9.180;2022-12-07T00:35:39;5.80;;;4.13;;
305;SDS011;137;48.578;9.180;2022-12-07T00:38:07;4.07;;;3.10;;
305;SDS011;137;48.578;9.180;2022-12-07T00:40:34;4.07;;;3.67;;
305;SDS011;137;48.578;9.180;2022-12-07T00:43:01;4.97;;;3.60;;
305;SDS011;137;48.578;9.180;2022-12-07T00:45:27;4.00;;;3.60;;
305;SDS011;137;48.578;9.180;2022-12-07T00:47:54;3.47;;;3.17;;
305;SDS011;137;48.578;9.180;2022-12-07T00:50:21;4.93;;;4.17;;
305;SDS011;137;48.578;9.180;2022-12-07T00:52:48;5.37;;;4.07;;
305;SDS011;137;48.578;9.180;2022-12-07T00:55:16;4.40;;;4.00;;
305;SDS011;137;48.578;9.180;2022-12-07T00:57:43;5.30;;;3.60;;
305;SDS011;137;48.578;9.180;2022-12-07T01:00:10;4.70;;;3.70;;
305;SDS011;137;48.578;9.180;2022-12-07T01:02:37;9.33;;;5.07;;
305;SDS011;137;48.578;9.180;2022-12-07T01:05:04;4.63;;;3.90;;
305;SDS011;137;48.578;9.180;2022-12-07T01:07:31;3.70;;;3.10;;
305;SDS011;137;48.578;9.180;2022-12-07T01:09:58;3.50;;;3.20;;
305;SDS011;137;48.578;9.180;2022-12-07T01:12:26;6.30;;;4.17;;
305;SDS011;137;48.578;9.180;2022-12-07T01:14:53;4.07;;;3.77;;
305;SDS011;137;48.578;9.180;2022-12-07T01:17:20;4.20;;;3.80;;
305;SDS011;137;48.578;9.180;2022-12-07T01:19:46;8.07;;;4.17;;
305;SDS011;137;48.578;9.180;2022-12-07T01:22:13;4.67;;;4.27;;
305;SDS011;137;48.578;9.180;2022-12-07T01:24:40;4.23;;;3.50;;
305;SDS011;137;48.578;9.180;2022-12-07T01:27:10;5.33;;;4.83;;
305;SDS011;137;48.578;9.180;2022-12-07T01:29:41;5.13;;;3.70;;
305;SDS011;137;48.578;9.180;2022-12-07T01:32:07;4.90;;;4.00;;
305;SDS011;137;48.578;9.180;2022-12-07T01:34:34;3.87;;;3.47;;
305;SDS011;137;48.578;9.180;2022-12-07T01:37:01;3.80;;;3.50;;
305;SDS011;137;48.578;9.180;2022-12-07T01:39:28;5.00;;;4.40;;
305;SDS011;137;48.578;9.180;2022-12-07T01:41:55;4.07;;;3.67;;
305;SDS011;137;48.578;9.180;2022-12-07T01:44:22;7.60;;;3.70;;
305;SDS011;137;48.578;9.180;2022-12-07T01:46:52;3.50;;;3.20;;
305;SDS011;137;48.578;9.180;2022-12-07T01:49:30;5.10;;;4.00;;
305;SDS011;137;48.578;9.180;2022-12-07T01:52:01;4.37;;;3.97;;
305;SDS011;137;48.578;9.180;2022-12-07T01:54:36;4.20;;;3.80;;
305;SDS011;137;48.578;9.180;2022-12-07T01:57:03;5.63;;;4.13;;
305;SDS011;137;48.578;9.180;2022-12-07T01:59:32;5.83;;;3.87;;
305;SDS011;137;48.578;9.180;2022-12-07T02:02:01;4.57;;;3.50;;
305;SDS011;137;48.578;9.180;2022-12-07T02:04:33;4.43;;;4.03;;
305;SDS011;137;48.578;9.180;2022-12-07T02:07:01;4.23;;;3.33;;
305;SDS011;137;48.578;9.180;2022-12-07T02:09:30;6.37;;;4.10;;
305;SDS011;137;48.578;9.180;2022-12-07T02:11:57;4.13;;;3.73;;
305;SDS011;137;48.578;9.180;2022-12-07T02:14:24;5.10;;;4.60;;
305;SDS011;137;48.578;9.180;2022-12-07T02:16:57;5.83;;;4.20;;
305;SDS011;137;48.578;9.180;2022-12-07T02:22:34;6.60;;;5.33;;
305;SDS011;137;48.578;9.180;2022-12-07T02:25:22;8.93;;;5.90;;
305;SDS011;137;48.578;9.180;2022-12-07T02:28:03;6.53;;;5.83;;
305;SDS011;137;48.578;9.180;2022-12-07T02:30:34;8.80;;;6.90;;
305;SDS011;137;48.578;9.180;2022-12-07T02:33:07;8.13;;;6.00;;
305;SDS011;137;48.578;9.180;2022-12-07T02:35:39;7.47;;;6.03;;
305;SDS011;137;48.578;9.180;2022-12-07T02:38:11;6.70;;;5.67;;
305;SDS011;137;48.578;9.180;2022-12-07T02:40:43;7.90;;;6.50;;
305;SDS011;137;48.578;9.180;2022-12-07T02:43:14;7.33;;;6.47;;
305;SDS011;137;48.578;9.180;2022-12-07T02:45:46;7.60;;;6.33;;
305;SDS011;137;48.578;9.180;2022-12-07T02:48:16;9.63;;;7.50;;
305;SDS011;137;48.578;9.180;2022-12-07T02:50:44;7.60;;;6.10;;
305;SDS011;137;48.578;9.180;2022-12-07T02:53:30;11.47;;;7.40;;
305;SDS011;137;48.578;9.180;2022-12-07T02:55:58;7.87;;;6.33;;
305;SDS011;137;48.578;9.180;2022-12-07T02:58:32;7.70;;;6.90;;
305;SDS011;137;48.578;9.180;2022-12-07T03:01:11;9.53;;;7.90;;
305;SDS011;137;48.578;9.180;2022-12-07T03:03:47;9.60;;;7.57;;
305;SDS011;137;48.578;9.180;2022-12-07T03:06:20;8.57;;;7.00;;
305;SDS011;137;48.578;9.180;2022-12-07T03:08:54;8.93;;;6.57;;
305;SDS011;137;48.578;9.180;2022-12-07T03:11:28;9.50;;;7.60;;
305;SDS011;137;48.578;9.180;2022-12-07T03:14:02;8.53;;;6.37;;
305;SDS011;137;48.578;9.180;2022-12-07T03:16:39;9.80;;;6.90;;
305;SDS011;137;48.578;9.180;2022-12-07T03:19:10;7.90;;;7.10;;
305;SDS011;137;48.578;9.180;2022-12-07T03:21:42;9.47;;;7.30;;
305;SDS011;137;48.578;9.180;2022-12-07T03:24:14;7.23;;;6.53;;
305;SDS011;137;48.578;9.180;2022-12-07T03:26:44;7.83;;;6.30;;
305;SDS011;137;48.578;9.180;2022-12-07T03:29:16;8.90;;;6.30;;
305;SDS011;137;48.578;9.180;2022-12-07T03:31:48;7.50;;;6.80;;
305;SDS011;137;48.578;9.180;2022-12-07T03:34:21;10.70;;;8.13;;
305;SDS011;137;48.578;9.180;2022-12-07T03:37:00;7.97;;;7.03;;
305;SDS011;137;48.578;9.180;2022-12-07T03:39:33;8.40;;;6.63;;
305;SDS011;137;48.578;9.180;2022-12-07T03:42:06;9.00;;;7.27;;
305;SDS011;137;48.578;9.180;2022-12-07T03:44:36;7.70;;;6.10;;
305;SDS011;137;48.578;9.180;2022-12-07T03:47:09;13.00;;;8.60;;
305;SDS011;137;48.578;9.180;2022-12-07T03:49:43;7.83;;;6.23;;
305;SDS011;137;48.578;9.180;2022-12-07T03:52:12;7.40;;;6.00;;
305;SDS011;137;48.578;9.180;2022-12-07T03:54:49;7.80;;;6.50;;
305;SDS011;137;48.578;9.180;2022-12-07T03:57:22;7.87;;;6.63;;
305;SDS011;137;48.578;9.180;2022-12-07T03:59:50;8.37;;;6.43;;
305;SDS011;137;48.578;9.180;2022-12-07T04:02:19;7.13;;;6.43;;
305;SDS011;137;48.578;9.180;2022-12-07T04:04:46;8.30;;;6.43;;
305;SDS011;137;48.578;9.180;2022-12-07T04:07:13;8.50;;;6.10;;
305;SDS011;137;48.578;9.180;2022-12-07T04:09:40;9.83;;;7.30;;
305;SDS011;137;48.578;9.180;2022-12-07T04:12:06;7.57;;;6.47;;
305;SDS011;137;48.578;9.180;2022-12-07T04:14:33;8.53;;;6.30;;
305;SDS011;137;48.578;9.180;2022-12-07T04:17:00;9.73;;;6.37;;
305;SDS011;137;48.578;9.180;2022-12-07T04:19:29;8.43;;;7.17;;
305;SDS011;137;48.578;9.180;2022-12-07T04:21:58;6.70;;;5.60;;
305;SDS011;137;48.578;9.180;2022-12-07T04:24:26;7.87;;;6.27;;
305;SDS011;137;48.578;9.180;2022-12-07T04:26:54;6.20;;;5.47;;
305;SDS011;137;48.578;9.180;2022-12-07T04:29:20;8.60;;;6.83;;
305;SDS011;137;48.578;9.180;2022-12-07T04:31:48;9.07;;;6.70;;
305;SDS011;137;48.578;9.180;2022-12-07T04:34:15;8.13;;;6.07;;
305;SDS011;137;48.578;9.180;2022-12-07T04:36:45;9.43;;;6.23;;
305;SDS011;137;48.578;9.180;2022-12-07T04:39:16;10.23;;;6.57;;
305;SDS011;137;48.578;9.180;2022-12-07T04:41:45;10.13;;;7.37;;
305;SDS011;137;48.578;9.180;2022-12-07T04:44:12;9.20;;;6.70;;
305;SDS011;137;48.578;9.180;2022-12-07T04:46:40;8.03;;;6.87;;
305;SDS011;137;48.578;9.180;2022-12-07T04:49:07;9.80;;;6.90;;
305;SDS011;137;48.578;9.180;2022-12-07T04:51:34;8.10;;;6.70;;
305;SDS011;137;48.578;9.180;2022-12-07T04:54:02;8.53;;;6.80;;
305;SDS011;137;48.578;9.180;2022-12-07T04:56:29;8.00;;;5.83;;
305;SDS011;137;48.578;9.180;2022-12-07T04:58:56;9.93;;;6.77;;
305;SDS011;137;48.578;9.180;2022-12-07T05:01:23;9.37;;;7.77;;
305;SDS011;137;48.578;9.180;2022-12-07T05:03:50;7.87;;;6.00;;
305;SDS011;137;48.578;9.180;2022-12-07T05:06:17;8.53;;;6.50;;
305;SDS011;137;48.578;9.180;2022-12-07T05:08:44;8.30;;;6.37;;
305;SDS011;137;48.578;9.180;2022-12-07T05:11:13;9.03;;;6.43;;
305;SDS011;137;48.578;9.180;2022-12-07T05:14:01;8.63;;;6.53;;
305;SDS011;137;48.578;9.180;2022-12-07T05:16:28;7.00;;;6.23;;
305;SDS011;137;48.578;9.180;2022-12-07T05:18:55;7.77;;;5.87;;
305;SDS011;137;48.578;9.180;2022-12-07T05:21:22;7.40;;;6.20;;
305;SDS011;137;48.578;9.180;2022-12-07T05:23:49;7.50;;;6.50;;
305;SDS011;137;48.578;9.180;2022-12-07T05:26:18;9.00;;;6.63;;
305;SDS011;137;48.578;9.180;2022-12-07T05:28:44;6.97;;;5.47;;
305;SDS011;137;48.578;9.180;2022-12-07T05:31:15;10.77;;;6.87;;
305;SDS011;137;48.578;9.180;2022-12-07T05:33:42;7.60;;;6.33;;
305;SDS011;137;48.578;9.180;2022-12-07T05:36:09;6.97;;;5.40;;
305;SDS011;137;48.578;9.180;2022-12-07T05:38:35;8.03;;;5.67;;
305;SDS011;137;48.578;9.180;2022-12-07T05:41:02;8.93;;;6.37;;
305;SDS011;137;48.578;9.180;2022-12-07T05:43:31;9.40;;;7.23;;
305;SDS011;137;48.578;9.180;2022-12-07T05:45:59;9.00;;;6.47;;
305;SDS011;137;48.578;9.180;2022-12-07T05:48:26;10.10;;;6.80;;
305;SDS011;137;48.578;9.180;2022-12-07T05:50:53;8.87;;;6.53;;
305;SDS011;137;48.578;9.180;2022-12-07T05:53:19;10.70;;;7.60;;
305;SDS011;137;48.578;9.180;2022-12-07T05:55:46;9.37;;;6.80;;
305;SDS011;137;48.578;9.180;2022-12-07T05:58:13;9.47;;;7.10;;
305;SDS011;137;48.578;9.180;2022-12-07T06:00:59;11.37;;;7.37;;
305;SDS011;137;48.578;9.180;2022-12-07T06:03:25;11.77;;;7.97;;
305;SDS011;137;48.578;9.180;2022-12-07T06:05:52;10.63;;;8.63;;
305;SDS011;137;48.578;9.180;2022-12-07T06:08:22;10.33;;;8.00;;
305;SDS011;137;48.578;9.180;2022-12-07T06:10:48;10.97;;;8.50;;
305;SDS011;137;48.578;9.180;2022-12-07T06:13:36;10.20;;;8.27;;
305;SDS011;137;48.578;9.180;2022-12-07T06:16:04;10.07;;;6.90;;
305;SDS011;137;48.578;9.180;2022-12-07T06:18:32;10.17;;;7.37;;
305;SDS011;137;48.578;9.180;2022-12-07T06:20:59;9.30;;;6.23;;
305;SDS011;137;48.578;9.180;2022-12-07T06:23:26;6.40;;;5.27;;
305;SDS011;137;48.578;9.180;2022-12-07T06:25:52;10.00;;;6.80;;
305;SDS011;137;48.578;9.180;2022-12-07T06:28:19;8.37;;;5.60;;
305;SDS011;137;48.578;9.180;2022-12-07T06:30:46;11.77;;;7.90;;
305;SDS011;137;48.578;9.180;2022-12-07T06:33:17;8.80;;;6.87;;
305;SDS011;137;48.578;9.180;2022-12-07T06:35:44;9.33;;;7.17;;
305;SDS011;137;48.578;9.180;2022-12-07T06:38:11;9.43;;;7.03;;
305;SDS011;137;48.578;9.180;2022-12-07T06:40:38;9.37;;;6.47;;
305;SDS011;137;48.578;9.180;2022-12-07T06:43:05;9.33;;;7.70;;
305;SDS011;137;48.578;9.180;2022-12-07T06:45:32;9.80;;;6.57;;
305;SDS011;137;48.578;9.180;2022-12-07T06:47:58;9.10;;;7.17;;
305;SDS011;137;48.578;9.180;2022-12-07T06:50:26;9.27;;;7.00;;
305;SDS011;137;48.578;9.180;2022-12-07T06:52:53;10.17;;;6.93;;
305;SDS011;137;48.578;9.180;2022-12-07T06:55:20;9.77;;;6.67;;
305;SDS011;137;48.578;9.180;2022-12-07T06:57:47;10.07;;;7.30;;
305;SDS011;137;48.578;9.180;2022-12-07T07:00:14;11.63;;;5.63;;
305;SDS011;137;48.578;9.180;2022-12-07T07:02:41;10.43;;;5.70;;
305;SDS011;137;48.578;9.180;2022-12-07T07:05:08;9.70;;;5.60;;
305;SDS011;137;48.578;9.180;2022-12-07T07:07:36;7.17;;;5.30;;
305;SDS011;137;48.578;9.180;2022-12-07T07:10:04;8.00;;;6.03;;
305;SDS011;137;48.578;9.180;2022-12-07T07:12:31;7.03;;;5.70;;
305;SDS011;137;48.578;9.180;2022-12-07T07:14:58;9.87;;;6.20;;
305;SDS011;137;48.578;9.180;2022-12-07T07:17:25;7.87;;;6.83;;
305;SDS011;137;48.578;9.180;2022-12-07T07:19:52;10.90;;;6.23;;
305;SDS011;137;48.578;9.180;2022-12-07T07:22:19;7.57;;;6.23;;
305;SDS011;137;48.578;9.180;2022-12-07T07:24:47;8.53;;;4.93;;
305;SDS011;137;48.578;9.180;2022-12-07T07:27:13;8.87;;;5.60;;
305;SDS011;137;48.578;9.180;2022-12-07T07:29:40;6.60;;;5.90;;
305;SDS011;137;48.578;9.180;2022-12-07T07:32:07;8.53;;;5.60;;
305;SDS011;137;48.578;9.180;2022-12-07T07:34:34;6.67;;;5.40;;
305;SDS011;137;48.578;9.180;2022-12-07T07:37:01;9.97;;;6.83;;
305;SDS011;137;48.578;9.180;2022-12-07T07:39:27;13.53;;;7.20;;
305;SDS011;137;48.578;9.180;2022-12-07T07:41:56;7.73;;;5.63;;
305;SDS011;137;48.578;9.180;2022-12-07T07:44:22;8.37;;;6.50;;
305;SDS011;137;48.578;9.180;2022-12-07T07:46:49;9.03;;;6.40;;
305;SDS011;137;48.578;9.180;2022-12-07T07:49:16;9.87;;;7.40;;
305;SDS011;137;48.578;9.180;2022-12-07T07:51:43;9.37;;;5.60;;
305;SDS011;137;48.578;9.180;2022-12-07T07:54:10;9.40;;;5.90;;
305;SDS011;137;48.578;9.180;2022-12-07T07:56:36;6.20;;;5.60;;
305;SDS011;137;48.578;9.180;2022-12-07T07:59:05;7.90;;;6.00;;
305;SDS011;137;48.578;9.180;2022-12-07T08:01:31;7.50;;;6.23;;
305;SDS011;137;48.578;9.180;2022-12-07T08:03:58;8.50;;;6.20;;
305;SDS011;137;48.578;9.180;2022-12-07T08:06:25;6.57;;;5.30;;
305;SDS011;137;48.578;9.180;2022-12-07T08:08:52;9.83;;;6.33;;
305;SDS011;137;48.578;9.180;2022-12-07T08:11:19;9.40;;;5.77;;
305;SDS011;137;48.578;9.180;2022-12-07T08:13:46;7.73;;;6.93;;
305;SDS011;137;48.578;9.180;2022-12-07T08:16:14;9.67;;;7.70;;
305;SDS011;137;48.578;9.180;2022-12-07T08:18:41;6.20;;;5.40;;
305;SDS011;137;48.578;9.180;2022-12-07T08:21:09;6.37;;;5.57;;
305;SDS011;137;48.578;9.180;2022-12-07T08:23:39;7.70;;;5.30;;
305;SDS011;137;48.578;9.180;2022-12-07T08:26:07;6.93;;;5.20;;
305;SDS011;137;48.578;9.180;2022-12-07T08:28:36;6.47;;;5.40;;
305;SDS011;137;48.578;9.180;2022-12-07T08:31:04;8.13;;;6.10;;
305;SDS011;137;48.578;9.180;2022-12-07T08:33:34;9.67;;;7.60;;
305;SDS011;137;48.578;9.180;2022-12-07T08:36:02;6.93;;;5.47;;
305;SDS011;137;48.578;9.180;2022-12-07T08:38:29;7.50;;;5.27;;
305;SDS011;137;48.578;9.180;2022-12-07T08:40:57;8.80;;;6.80;;
305;SDS011;137;48.578;9.180;2022-12-07T08:43:25;7.83;;;6.50;;
305;SDS011;137;48.578;9.180;2022-12-07T08:45:53;9.73;;;6.87;;
305;SDS011;137;48.578;9.180;2022-12-07T08:48:28;8.53;;;7.00;;
305;SDS011;137;48.578;9.180;2022-12-07T08:50:57;8.23;;;5.67;;
305;SDS011;137;48.578;9.180;2022-12-07T08:53:24;8.83;;;6.60;;
305;SDS011;137;48.578;9.180;2022-12-07T08:55:51;7.33;;;6.57;;
305;SDS011;137;48.578;9.180;2022-12-07T08:58:19;8.10;;;6.60;;
305;SDS011;137;48.578;9.180;2022-12-07T09:00:46;6.60;;;5.90;;
305;SDS011;137;48.578;9.180;2022-12-07T09:03:13;9.40;;;6.60;;
305;SDS011;137;48.578;9.180;2022-12-07T09:05:40;7.83;;;6.37;;
305;SDS011;137;48.578;9.180;2022-12-07T09:11:02;8.77;;;7.13;;
305;SDS011;137;48.578;9.180;2022-12-07T09:13:29;11.23;;;7.60;;
305;SDS011;137;48.578;9.180;2022-12-07T09:15:56;7.27;;;6.50;;
305;SDS011;137;48.578;9.180;2022-12-07T09:18:23;9.70;;;7.43;;
305;SDS011;137;48.578;9.180;2022-12-07T09:20:50;8.13;;;7.13;;
305;SDS011;137;48.578;9.180;2022-12-07T09:23:17;8.80;;;7.27;;
305;SDS011;137;48.578;9.180;2022-12-07T09:25:45;10.17;;;5.77;;
305;SDS011;137;48.578;9.180;2022-12-07T09:28:12;7.20;;;5.60;;
305;SDS011;137;48.578;9.180;2022-12-07T09:30:44;8.53;;;6.20;;
305;SDS011;137;48.578;9.180;2022-12-07T09:33:11;6.93;;;5.30;;
305;SDS011;137;48.578;9.180;2022-12-07T09:35:39;7.00;;;5.30;;
305;SDS011;137;48.578;9.180;2022-12-07T09:38:10;6.87;;;5.43;;
305;SDS011;137;48.578;9.180;2022-12-07T09:40:37;5.57;;;4.70;;
305;SDS011;137;48.578;9.180;2022-12-07T09:43:10;7.17;;;5.07;;
305;SDS011;137;48.578;9.180;2022-12-07T09:45:39;5.23;;;4.83;;
305;SDS011;137;48.578;9.180;2022-12-07T09:48:09;6.37;;;4.80;;
305;SDS011;137;48.578;9.180;2022-12-07T09:50:43;6.60;;;5.17;;
305;SDS011;137;48.578;9.180;2022-12-07T09:53:12;6.27;;;5.10;;
305;SDS011;137;48.578;9.180;2022-12-07T09:55:45;6.20;;;5.30;;
305;SDS011;137;48.578;9.180;2022-12-07T09:58:16;8.37;;;5.57;;
305;SDS011;137;48.578;9.180;2022-12-07T10:00:47;6.17;;;3.80;;
305;SDS011;137;48.578;9.180;2022-12-07T10:03:14;5.57;;;4.87;;
305;SDS011;137;48.578;9.180;2022-12-07T10:05:42;6.63;;;4.10;;
305;SDS011;137;48.578;9.180;2022-12-07T10:08:11;4.93;;;4.17;;
305;SDS011;137;48.578;9.180;2022-12-07T10:10:40;6.87;;;5.30;;
305;SDS011;137;48.578;9.180;2022-12-07T10:13:08;5.20;;;4.50;;
305;SDS011;137;48.578;9.180;2022-12-07T10:15:42;6.40;;;4.30;;
305;SDS011;137;48.578;9.180;2022-12-07T10:18:27;6.53;;;3.83;;
305;SDS011;137;48.578;9.180;2022-12-07T10:21:11;5.97;;;4.10;;
305;SDS011;137;48.578;9.180;2022-12-07T10:23:41;7.20;;;5.37;;
305;SDS011;137;48.578;9.180;2022-12-07T10:26:29;5.17;;;4.23;;
305;SDS011;137;48.578;9.180;2022-12-07T10:28:58;5.80;;;4.80;;
305;SDS011;137;48.578;9.180;2022-12-07T10:31:28;5.23;;;4.50;;
305;SDS011;137;48.578;9.180;2022-12-07T10:33:57;4.10;;;3.70;;
305;SDS011;137;48.578;9.180;2022-12-07T10:36:25;4.67;;;3.87;;
305;SDS011;137;48.578;9.180;2022-12-07T10:38:59;6.13;;;4.70;;
305;SDS011;137;48.578;9.180;2022-12-07T10:41:28;5.10;;;4.03;;
305;SDS011;137;48.578;9.180;2022-12-07T10:43:56;6.90;;;4.53;;
305;SDS011;137;48.578;9.180;2022-12-07T10:52:15;5.80;;;3.77;;
305;SDS011;137;48.578;9.180;2022-12-07T10:54:54;5.60;;;4.20;;
305;SDS011;137;48.578;9.180;2022-12-07T10:57:40;5.10;;;3.97;;
305;SDS011;137;48.578;9.180;2022-12-07T11:00:15;4.70;;;3.90;;
305;SDS011;137;48.578;9.180;2022-12-07T11:02:52;6.30;;;4.30;;
305;SDS011;137;48.578;9.180;2022-12-07T11:05:39;6.50;;;4.43;;
305;SDS011;137;48.578;9.180;2022-12-07T11:08:13;5.03;;;4.53;;
305;SDS011;137;48.578;9.180;2022-12-07T11:10:50;4.63;;;3.83;;
305;SDS011;137;48.578;9.180;2022-12-07T11:13:28;5.60;;;4.67;;
305;SDS011;137;48.578;9.180;2022-12-07T11:16:08;3.97;;;3.57;;
305;SDS011;137;48.578;9.180;2022-12-07T11:19:13;4.50;;;3.67;;
305;SDS011;137;48.578;9.180;2022-12-07T11:21:52;6.47;;;3.90;;
305;SDS011;137;48.578;9.180;2022-12-07T11:24:24;4.70;;;3.27;;
305;SDS011;137;48.578;9.180;2022-12-07T11:27:02;3.60;;;3.20;;
305;SDS011;137;48.578;9.180;2022-12-07T11:29:46;4.93;;;4.20;;
305;SDS011;137;48.578;9.180;2022-12-07T11:32:34;7.87;;;4.50;;
305;SDS011;137;48.578;9.180;2022-12-07T11:35:17;6.10;;;4.00;;
305;SDS011;137;48.578;9.180;2022-12-07T11:37:55;4.90;;;4.40;;
305;SDS011;137;48.578;9.180;2022-12-07T11:40:27;5.87;;;3.93;;
305;SDS011;137;48.578;9.180;2022-12-07T11:43:00;4.57;;;3.53;;
305;SDS011;137;48.578;9.180;2022-12-07T11:45:32;5.10;;;3.93;;
305;SDS011;137;48.578;9.180;2022-12-07T11:48:01;6.10;;;4.17;;
305;SDS011;137;48.578;9.180;2022-12-07T11:50:34;4.60;;;4.00;;
305;SDS011;137;48.578;9.180;2022-12-07T11:53:09;4.80;;;4.10;;
305;SDS011;137;48.578;9.180;2022-12-07T11:55:42;4.70;;;4.30;;
305;SDS011;137;48.578;9.180;2022-12-07T11:58:19;4.57;;;3.93;;
305;SDS011;137;48.578;9.180;2022-12-07T12:00:55;4.60;;;4.17;;
305;SDS011;137;48.578;9.180;2022-12-07T12:03:33;4.93;;;4.30;;
305;SDS011;137;48.578;9.180;2022-12-07T12:06:05;5.13;;;4.10;;
305;SDS011;137;48.578;9.180;2022-12-07T12:08:34;4.07;;;3.70;;
305;SDS011;137;48.578;9.180;2022-12-07T12:11:08;4.10;;;3.27;;
305;SDS011;137;48.578;9.180;2022-12-07T12:13:59;5.20;;;4.60;;
305;SDS011;137;48.578;9.180;2022-12-07T12:16:51;4.50;;;3.23;;
305;SDS011;137;48.578;9.180;2022-12-07T12:19:32;4.57;;;4.07;;
305;SDS011;137;48.578;9.180;2022-12-07T12:22:06;4.70;;;4.00;;
305;SDS011;137;48.578;9.180;2022-12-07T12:24:40;5.50;;;4.00;;
305;SDS011;137;48.578;9.180;2022-12-07T12:27:10;5.40;;;4.33;;
305;SDS011;137;48.578;9.180;2022-12-07T12:29:50;6.00;;;4.50;;
305;SDS011;137;48.578;9.180;2022-12-07T12:32:20;4.97;;;4.20;;
305;SDS011;137;48.578;9.180;2022-12-07T12:35:00;4.70;;;3.90;;
305;SDS011;137;48.578;9.180;2022-12-07T12:37:47;6.10;;;4.17;;
305;SDS011;137;48.578;9.180;2022-12-07T12:49:17;5.33;;;3.80;;
305;SDS011;137;48.578;9.180;2022-12-07T12:55:16;5.13;;;3.60;;
305;SDS011;137;48.578;9.180;2022-12-07T13:03:54;4.50;;;3.50;;
305;SDS011;137;48.578;9.180;2022-12-07T13:06:31;6.70;;;4.17;;
305;SDS011;137;48.578;9.180;2022-12-07T13:09:03;5.80;;;3.20;;
305;SDS011;137;48.578;9.180;2022-12-07T13:11:32;5.60;;;3.90;;
305;SDS011;137;48.578;9.180;2022-12-07T13:17:08;6.00;;;4.47;;
305;SDS011;137;48.578;9.180;2022-12-07T13:25:29;6.20;;;4.57;;
305;SDS011;137;48.578;9.180;2022-12-07T13:28:15;4.40;;;3.77;;
305;SDS011;137;48.578;9.180;2022-12-07T13:30:45;4.60;;;4.10;;
305;SDS011;137;48.578;9.180;2022-12-07T13:33:19;4.10;;;3.70;;
305;SDS011;137;48.578;9.180;2022-12-07T13:35:46;5.73;;;3.83;;
305;SDS011;137;48.578;9.180;2022-12-07T13:38:21;5.20;;;4.17;;
305;SDS011;137;48.578;9.180;2022-12-07T13:41:04;4.67;;;3.80;;
305;SDS011;137;48.578;9.180;2022-12-07T13:43:44;4.90;;;3.50;;
305;SDS011;137;48.578;9.180;2022-12-07T13:46:12;6.70;;;3.40;;
305;SDS011;137;48.578;9.180;2022-12-07T13:48:43;4.30;;;3.70;;
305;SDS011;137;48.578;9.180;2022-12-07T13:51:17;3.60;;;3.30;;
305;SDS011;137;48.578;9.180;2022-12-07T13:53:46;3.90;;;3.50;;
305;SDS011;137;48.578;9.180;2022-12-07T13:56:14;3.90;;;3.50;;
305;SDS011;137;48.578;9.180;2022-12-07T13:58:42;4.73;;;3.27;;
305;SDS011;137;48.578;9.180;2022-12-07T14:01:14;6.27;;;4.13;;
305;SDS011;137;48.578;9.180;2022-12-07T14:03:41;4.10;;;3.70;;
305;SDS011;137;48.578;9.180;2022-12-07T14:06:19;5.90;;;4.10;;
305;SDS011;137;48.578;9.180;2022-12-07T14:09:05;4.57;;;3.27;;
305;SDS011;137;48.578;9.180;2022-12-07T14:11:42;4.30;;;3.90;;
305;SDS011;137;48.578;9.180;2022-12-07T14:14:15;5.13;;;4.37;;
305;SDS011;137;48.578;9.180;2022-12-07T14:16:54;5.80;;;4.10;;
305;SDS011;137;48.578;9.180;2022-12-07T14:19:46;4.70;;;3.83;;
305;SDS011;137;48.578;9.180;2022-12-07T14:22:20;4.13;;;3.30;;
305;SDS011;137;48.578;9.180;2022-12-07T14:27:50;4.73;;;4.27;;
305;SDS011;137;48.578;9.180;2022-12-07T14:30:24;4.40;;;3.60;;
305;SDS011;137;48.578;9.180;2022-12-07T14:32:58;4.83;;;3.30;;
305;SDS011;137;48.578;9.180;2022-12-07T14:35:29;5.43;;;3.90;;
305;SDS011;137;48.578;9.180;2022-12-07T14:37:57;4.47;;;3.40;;
305;SDS011;137;48.578;9.180;2022-12-07T14:40:25;5.00;;;3.77;;
305;SDS011;137;48.578;9.180;2022-12-07T14:42:54;10.33;;;3.30;;
305;SDS011;137;48.578;9.180;2022-12-07T14:45:28;4.27;;;3.63;;
305;SDS011;137;48.578;9.180;2022-12-07T14:47:55;4.10;;;2.97;;
305;SDS011;137;48.578;9.180;2022-12-07T14:50:22;4.10;;;1.90;;
305;SDS011;137;48.578;9.180;2022-12-07T14:52:50;7.33;;;4.20;;
305;SDS011;137;48.578;9.180;2022-12-07T14:55:22;3.03;;;1.77;;
305;SDS011;137;48.578;9.180;2022-12-07T14:57:51;3.40;;;2.20;;
305;SDS011;137;48.578;9.180;2022-12-07T15:00:19;3.27;;;2.10;;
305;SDS011;137;48.578;9.180;2022-12-07T15:02:49;2.57;;;2.03;;
305;SDS011;137;48.578;9.180;2022-12-07T15:05:22;2.50;;;2.17;;
305;SDS011;137;48.578;9.180;2022-12-07T15:07:50;3.00;;;2.70;;
305;SDS011;137;48.578;9.180;2022-12-07T15:10:21;3.30;;;2.97;;
305;SDS011;137;48.578;9.180;2022-12-07T15:12:54;4.10;;;2.80;;
305;SDS011;137;48.578;9.180;2022-12-07T15:15:41;3.90;;;3.23;;
305;SDS011;137;48.578;9.180;2022-12-07T15:18:10;5.30;;;2.90;;
305;SDS011;137;48.578;9.180;2022-12-07T15:20:37;3.00;;;2.53;;
305;SDS011;137;48.578;9.180;2022-12-07T15:23:11;3.47;;;2.87;;
305;SDS011;137;48.578;9.180;2022-12-07T15:25:39;2.93;;;2.40;;
305;SDS011;137;48.578;9.180;2022-12-07T15:28:06;2.70;;;2.50;;
305;SDS011;137;48.578;9.180;2022-12-07T15:30:36;10.23;;;3.60;;
305;SDS011;137;48.578;9.180;2022-12-07T15:33:04;4.10;;;3.53;;
305;SDS011;137;48.578;9.180;2022-12-07T15:35:32;4.67;;;3.67;;
305;SDS011;137;48.578;9.180;2022-12-07T15:37:59;5.77;;;3.93;;
305;SDS011;137;48.578;9.180;2022-12-07T15:40:26;5.97;;;3.60;;
305;SDS011;137;48.578;9.180;2022-12-07T15:42:56;7.30;;;3.17;;
305;SDS011;137;48.578;9.180;2022-12-07T15:45:25;4.80;;;2.87;;
305;SDS011;137;48.578;9.180;2022-12-07T15:47:51;5.10;;;3.07;;
305;SDS011;137;48.578;9.180;2022-12-07T15:50:20;3.80;;;3.10;;
305;SDS011;137;48.578;9.180;2022-12-07T15:52:48;6.23;;;3.37;;
305;SDS011;137;48.578;9.180;2022-12-07T15:55:16;4.40;;;3.10;;
305;SDS011;137;48.578;9.180;2022-12-07T15:57:43;6.80;;;3.60;;
305;SDS011;137;48.578;9.180;2022-12-07T16:00:10;4.10;;;3.00;;
305;SDS011;137;48.578;9.180;2022-12-07T16:02:41;4.20;;;3.27;;
305;SDS011;137;48.578;9.180;2022-12-07T16:05:08;9.30;;;5.87;;
305;SDS011;137;48.578;9.180;2022-12-07T16:07:35;4.77;;;4.03;;
305;SDS011;137;48.578;9.180;2022-12-07T16:10:05;5.10;;;4.13;;
305;SDS011;137;48.578;9.180;2022-12-07T16:12:40;3.90;;;3.30;;
305;SDS011;137;48.578;9.180;2022-12-07T16:15:37;5.23;;;2.70;;
305;SDS011;137;48.578;9.180;2022-12-07T16:18:04;3.23;;;2.93;;
305;SDS011;137;48.578;9.180;2022-12-07T16:20:33;3.73;;;3.10;;
305;SDS011;137;48.578;9.180;2022-12-07T16:23:04;4.00;;;3.60;;
305;SDS011;137;48.578;9.180;2022-12-07T16:38:22;4.30;;;2.67;;
305;SDS011;137;48.578;9.180;2022-12-07T16:41:06;3.23;;;2.93;;
305;SDS011;137;48.578;9.180;2022-12-07T16:43:47;5.70;;;3.43;;
305;SDS011;137;48.578;9.180;2022-12-07T16:46:31;5.10;;;3.40;;
305;SDS011;137;48.578;9.180;2022-12-07T16:49:12;4.07;;;2.33;;
305;SDS011;137;48.578;9.180;2022-12-07T16:51:54;3.47;;;3.00;;
305;SDS011;137;48.578;9.180;2022-12-07T17:01:00;6.50;;;3.53;;
305;SDS011;137;48.578;9.180;2022-12-07T17:03:54;4.10;;;3.47;;
305;SDS011;137;48.578;9.180;2022-12-07T17:06:41;3.80;;;3.33;;
305;SDS011;137;48.578;9.180;2022-12-07T17:09:25;5.87;;;4.10;;